Time;durP1;ratioP1;P1;durP2;ratioP2;P2;SDS_P1;SDS_P2;PMS_P1;PMS_P2;Temp;Humidity;BMP_temperature;BMP_pressure;BME280_temperature;BME280_humidity;BME280_pressure;Samples;Min_cycle;Max_cycle;Signal;HPM_P1;HPM_P2
2023/01/09 00:01:26;;;;;;;19.77;11.77;;;;;;;2.40;68.10;95079.81;4974188;28;20038;-70
2023/01/09 00:03:52;;;;;;;18.42;11.75;;;;;;;2.46;67.77;95089.78;4973018;28;20122;-69
2023/01/09 00:06:17;;;;;;;18.45;11.48;;;;;;;2.42;68.14;95083.97;4956841;28;20038;-69
2023/01/09 00:08:42;;;;;;;16.52;10.85;;;;;;;2.48;67.22;95082.84;4969091;28;20054;-70
2023/01/09 00:11:08;;;;;;;17.70;10.65;;;;;;;2.43;66.49;95079.66;4953403;28;20148;-69
2023/01/09 00:13:34;;;;;;;15.88;10.18;;;;;;;2.32;66.67;95076.78;4937522;29;20039;-69
2023/01/09 00:15:59;;;;;;;21.48;11.68;;;;;;;2.05;67.02;95073.75;4953381;29;20486;-70
2023/01/09 00:18:25;;;;;;;15.45;10.70;;;;;;;1.83;67.39;95073.88;4967363;28;20496;-69
2023/01/09 00:20:50;;;;;;;17.77;11.88;;;;;;;1.87;68.18;95080.53;4972603;28;20042;-70
2023/01/09 00:23:16;;;;;;;17.77;11.60;;;;;;;1.98;68.26;95079.16;4956467;28;20389;-69
2023/01/09 00:25:42;;;;;;;18.48;12.30;;;;;;;1.88;69.09;95067.63;4972492;28;20031;-70
2023/01/09 00:28:07;;;;;;;19.80;12.10;;;;;;;1.79;69.28;95084.25;4972406;28;20493;-69
2023/01/09 00:30:32;;;;;;;19.05;12.73;;;;;;;1.87;69.57;95071.09;4973522;28;20486;-69
2023/01/09 00:32:58;;;;;;;18.48;12.32;;;;;;;1.96;68.97;95080.09;4956358;28;20170;-70
2023/01/09 00:35:24;;;;;;;20.70;12.27;;;;;;;1.93;69.06;95070.00;4972360;28;20030;-69
2023/01/09 00:37:49;;;;;;;17.85;12.02;;;;;;;1.95;68.56;95074.16;4972251;28;20424;-69
2023/01/09 00:40:15;;;;;;;18.98;12.35;;;;;;;1.87;68.14;95088.22;4971167;28;20027;-70
2023/01/09 00:42:42;;;;;;;19.80;12.45;;;;;;;1.81;67.92;95068.78;4971993;28;20067;-69
2023/01/09 00:45:10;;;;;;;16.40;11.30;;;;;;;1.87;67.36;95077.97;4972144;28;20038;-70
2023/01/09 00:47:41;;;;;;;18.63;12.02;;;;;;;1.67;67.92;95060.91;4972154;28;20053;-70
2023/01/09 00:50:25;;;;;;;18.95;11.95;;;;;;;1.62;68.08;95075.66;4971998;28;20109;-69
2023/01/09 00:52:50;;;;;;;17.42;11.18;;;;;;;1.39;68.49;95062.09;4972068;28;20563;-70
2023/01/09 00:55:16;;;;;;;17.25;10.93;;;;;;;1.44;68.01;95067.03;4971982;28;20037;-71
2023/01/09 00:57:41;;;;;;;19.83;12.02;;;;;;;1.40;68.64;95068.91;4971571;28;20092;-70
2023/01/09 01:00:08;;;;;;;18.77;12.25;;;;;;;1.36;69.66;95066.53;4971822;28;20037;-70
2023/01/09 01:02:33;;;;;;;19.48;12.38;;;;;;;1.36;70.46;95076.75;4971619;28;20046;-70
2023/01/09 01:07:43;;;;;;;28.90;17.00;;;;;;;1.22;69.11;95062.81;4972105;28;20472;-69
2023/01/09 01:10:15;;;;;;;26.08;17.73;;;;;;;1.42;69.05;95076.50;4957528;28;20031;-70
2023/01/09 01:12:41;;;;;;;24.35;16.60;;;;;;;1.36;68.44;95076.75;4952301;28;20046;-70
2023/01/09 01:15:06;;;;;;;26.05;15.68;;;;;;;1.15;69.05;95076.78;4952300;29;20027;-70
2023/01/09 01:17:33;;;;;;;24.13;15.27;;;;;;;1.06;68.71;95077.16;4952150;28;20034;-69
2023/01/09 01:19:59;;;;;;;22.15;15.00;;;;;;;1.02;69.13;95071.31;4952211;29;20166;-70
2023/01/09 01:22:24;;;;;;;19.08;12.85;;;;;;;0.97;68.22;95057.06;4953264;28;20031;-69
2023/01/09 01:24:50;;;;;;;18.65;12.07;;;;;;;0.96;68.49;95060.53;4952146;29;20046;-69
2023/01/09 01:27:15;;;;;;;20.73;12.52;;;;;;;0.91;68.39;95055.59;4953258;28;20028;-70
2023/01/09 01:29:41;;;;;;;18.38;11.30;;;;;;;0.83;68.68;95040.56;4952240;29;20042;-69
2023/01/09 01:32:06;;;;;;;17.55;10.35;;;;;;;0.88;69.16;95054.00;4951956;29;20034;-69
2023/01/09 01:34:32;;;;;;;17.48;10.98;;;;;;;0.85;69.50;95048.19;4952256;28;20046;-69
2023/01/09 01:36:57;;;;;;;21.35;11.98;;;;;;;0.82;69.31;95048.31;4951988;29;20069;-69
2023/01/09 01:39:23;;;;;;;20.40;12.18;;;;;;;0.72;69.92;95047.84;4952229;28;20066;-69
2023/01/09 01:41:48;;;;;;;18.13;12.32;;;;;;;0.66;70.81;95040.41;4951731;28;20098;-69
2023/01/09 01:44:51;;;;;;;23.20;12.55;;;;;;;0.59;70.95;95049.25;4953533;28;20042;-69
2023/01/09 01:47:16;;;;;;;18.08;11.95;;;;;;;0.56;72.99;95041.69;4953001;28;20035;-69
2023/01/09 01:49:42;;;;;;;21.60;12.70;;;;;;;0.55;72.92;95042.56;4951799;29;20039;-69
2023/01/09 01:52:07;;;;;;;20.02;12.18;;;;;;;0.53;73.32;95041.78;4951352;28;20086;-69
2023/01/09 01:54:33;;;;;;;23.10;13.25;;;;;;;0.68;72.41;95037.81;4951974;29;20098;-69
2023/01/09 01:57:01;;;;;;;18.10;12.55;;;;;;;0.68;71.87;95030.13;4951710;29;20045;-69
2023/01/09 01:59:29;;;;;;;17.45;11.43;;;;;;;0.74;71.65;95020.47;4951603;28;20055;-69
2023/01/09 02:01:58;;;;;;;22.17;12.38;;;;;;;0.62;72.01;95000.53;4951561;28;20449;-69
2023/01/09 02:04:24;;;;;;;17.65;11.48;;;;;;;0.85;71.85;95022.59;4962008;28;20045;-69
2023/01/09 02:06:51;;;;;;;18.35;11.23;;;;;;;0.79;71.71;95021.13;4961937;28;20027;-69
2023/01/09 02:09:17;;;;;;;17.45;10.65;;;;;;;0.85;70.79;95015.75;4954123;28;20049;-69
2023/01/09 02:11:47;;;;;;;19.40;11.45;;;;;;;0.86;70.62;95014.00;4967431;28;20040;-70
2023/01/09 02:14:14;;;;;;;15.65;10.68;;;;;;;0.93;70.56;95014.63;4954573;28;20105;-69
2023/01/09 02:16:39;;;;;;;17.38;11.13;;;;;;;0.94;70.12;95011.16;4970435;28;20031;-69
2023/01/09 02:19:13;;;;;;;15.35;10.45;;;;;;;0.87;70.07;95005.47;4970643;28;20097;-70
2023/01/09 02:22:20;;;;;;;20.77;12.30;;;;;;;0.92;70.56;95003.56;4952900;28;20533;-69
2023/01/09 02:25:19;;;;;;;18.80;12.02;;;;;;;0.87;71.03;95001.19;4957819;28;20042;-70
2023/01/09 02:27:59;;;;;;;19.38;11.23;;;;;;;0.81;71.65;94998.88;4953615;28;20031;-70
2023/01/09 02:30:39;;;;;;;19.63;11.18;;;;;;;0.74;72.07;94989.78;4935161;29;20505;-70
2023/01/09 02:33:23;;;;;;;20.10;11.73;;;;;;;0.89;72.11;95007.06;4963481;28;20047;-69
2023/01/09 02:36:00;;;;;;;17.52;11.73;;;;;;;0.93;70.99;94996.69;4958254;28;20093;-69
2023/01/09 02:38:28;;;;;;;18.15;11.35;;;;;;;0.92;71.54;94997.56;4955800;28;20054;-69
2023/01/09 02:41:17;;;;;;;20.38;11.23;;;;;;;0.89;71.51;94994.28;4985738;28;20086;-70
2023/01/09 02:43:43;;;;;;;17.48;11.45;;;;;;;0.87;71.97;94985.81;4954279;28;20035;-69
2023/01/09 02:46:19;;;;;;;18.95;12.15;;;;;;;0.80;72.52;94963.94;4968931;28;20086;-69
2023/01/09 02:48:44;;;;;;;22.33;12.82;;;;;;;1.02;71.72;94993.75;4968829;28;20031;-70
2023/01/09 02:51:13;;;;;;;19.48;12.60;;;;;;;0.95;72.31;94980.41;4959533;28;20446;-69
2023/01/09 02:53:55;;;;;;;21.48;11.88;;;;;;;1.10;71.13;94992.53;4935184;28;20043;-69
2023/01/09 02:56:23;;;;;;;19.85;12.48;;;;;;;1.08;71.67;94999.41;4958787;28;20569;-70
2023/01/09 02:59:18;;;;;;;18.63;12.20;;;;;;;1.07;71.73;94991.81;4959060;28;20047;-69
2023/01/09 03:02:02;;;;;;;16.25;11.13;;;;;;;1.09;71.53;94988.31;4951070;28;20529;-70
2023/01/09 03:04:58;;;;;;;19.80;12.32;;;;;;;1.11;72.27;94993.34;4953797;28;20094;-70
2023/01/09 03:07:32;;;;;;;17.52;11.90;;;;;;;1.01;71.87;94986.97;4931310;28;20042;-69
2023/01/09 03:10:04;;;;;;;21.02;11.75;;;;;;;0.98;72.32;94976.88;4969159;28;20049;-70
2023/01/09 03:12:30;;;;;;;19.25;11.63;;;;;;;1.19;71.60;94981.03;4969974;28;20034;-70
2023/01/09 03:14:56;;;;;;;18.50;10.73;;;;;;;1.24;70.73;94989.34;4953448;28;20038;-69
2023/01/09 03:17:31;;;;;;;17.80;11.10;;;;;;;1.24;70.40;94994.47;4973434;28;20031;-69
2023/01/09 03:19:56;;;;;;;18.98;11.98;;;;;;;1.08;69.76;94984.06;4958219;28;20065;-69
2023/01/09 03:22:22;;;;;;;21.08;12.02;;;;;;;0.91;70.01;94980.56;4944528;29;20031;-69
2023/01/09 03:24:48;;;;;;;22.67;13.23;;;;;;;0.94;69.43;94975.34;4938325;29;20040;-69
2023/01/09 03:27:13;;;;;;;19.63;12.25;;;;;;;0.66;69.43;94948.34;4954234;29;20027;-69
2023/01/09 03:29:39;;;;;;;18.25;11.20;;;;;;;0.93;69.58;94997.53;4954100;28;20043;-69
2023/01/09 03:32:04;;;;;;;17.58;10.43;;;;;;;0.76;69.18;94998.22;4954075;29;20055;-69
2023/01/09 03:34:30;;;;;;;17.00;10.32;;;;;;;0.61;69.64;94991.19;4966640;28;20035;-69
2023/01/09 03:36:55;;;;;;;16.40;10.30;;;;;;;0.63;68.88;94997.91;4974620;28;20026;-69
2023/01/09 03:39:21;;;;;;;16.25;10.32;;;;;;;0.59;69.70;94985.31;4957469;28;20426;-69
2023/01/09 03:41:46;;;;;;;14.68;10.32;;;;;;;0.60;70.00;94980.13;4973327;28;20474;-69
2023/01/09 03:44:11;;;;;;;17.67;10.73;;;;;;;0.53;70.13;94983.00;4957297;28;20402;-70
2023/01/09 03:46:37;;;;;;;18.88;10.45;;;;;;;0.48;70.17;94992.59;4957225;28;20030;-70
2023/01/09 03:49:02;;;;;;;17.35;11.05;;;;;;;0.43;70.41;94991.03;4973274;28;20035;-70
2023/01/09 03:51:28;;;;;;;17.67;10.70;;;;;;;0.26;70.25;94973.00;4956914;28;20465;-69
2023/01/09 03:53:53;;;;;;;16.05;11.18;;;;;;;0.28;70.38;94986.56;4974210;28;20035;-69
2023/01/09 03:56:19;;;;;;;18.55;11.57;;;;;;;0.20;70.45;94989.41;4973107;28;20035;-69
2023/01/09 03:58:44;;;;;;;21.63;12.98;;;;;;;0.19;70.33;94992.03;4956644;28;20533;-69
2023/01/09 04:01:12;;;;;;;20.70;11.70;;;;;;;0.09;70.72;94988.19;4974159;28;20034;-70
2023/01/09 04:03:38;;;;;;;17.05;10.73;;;;;;;0.06;71.01;94991.69;4974264;28;20042;-69
2023/01/09 04:06:05;;;;;;;20.10;11.85;;;;;;;-0.03;70.68;94987.78;4956950;28;20035;-71
2023/01/09 04:08:30;;;;;;;20.13;11.90;;;;;;;-0.09;70.87;94987.97;4940724;28;20041;-69
2023/01/09 04:10:55;;;;;;;23.45;14.93;;;;;;;0.03;70.55;94996.06;4960841;28;20039;-69
2023/01/09 04:13:21;;;;;;;23.23;14.52;;;;;;;-0.06;70.35;94992.16;4954789;28;20446;-69
2023/01/09 04:15:47;;;;;;;20.65;11.75;;;;;;;-0.40;70.55;94974.72;4953118;28;20040;-70
2023/01/09 04:18:12;;;;;;;24.50;15.48;;;;;;;-0.54;71.25;94988.81;4954675;28;20027;-69
2023/01/09 04:20:38;;;;;;;22.40;13.77;;;;;;;-0.48;72.70;94983.50;4969396;28;20433;-69
2023/01/09 04:23:03;;;;;;;20.85;13.05;;;;;;;-0.35;72.31;94988.97;4953402;29;20493;-69
2023/01/09 04:25:29;;;;;;;20.52;11.73;;;;;;;-0.37;72.85;94989.94;4959522;28;20486;-70
2023/01/09 04:27:54;;;;;;;21.75;12.10;;;;;;;-0.32;72.31;94982.94;4968646;28;20401;-69
2023/01/09 04:30:19;;;;;;;20.05;11.10;;;;;;;-0.38;72.17;94972.97;4969014;28;20042;-69
2023/01/09 04:32:45;;;;;;;20.70;12.43;;;;;;;-0.40;72.18;94974.72;4952500;28;20509;-69
2023/01/09 04:35:10;;;;;;;19.05;11.88;;;;;;;-0.48;71.83;94964.78;4969568;28;20417;-69
2023/01/09 04:37:36;;;;;;;23.15;13.23;;;;;;;-0.53;72.11;94982.84;4968349;28;20023;-69
2023/01/09 04:40:07;;;;;;;22.23;13.13;;;;;;;-0.56;72.94;94992.31;4962422;28;20037;-70
2023/01/09 04:42:32;;;;;;;;;;;;;;;-0.53;72.10;94987.97;4967944;28;20050;-69
2023/01/09 04:44:58;;;;;;;19.98;11.40;;;;;;;-0.66;72.29;94983.34;4968344;28;20404;-69
2023/01/09 04:47:23;;;;;;;19.75;10.55;;;;;;;-0.72;72.67;94976.75;4969234;28;20019;-69
2023/01/09 04:49:49;;;;;;;21.80;13.27;;;;;;;-0.64;72.48;94981.56;4968196;28;20039;-69
2023/01/09 04:52:14;;;;;;;22.48;13.15;;;;;;;-0.65;72.38;94965.41;4965098;28;20520;-69
2023/01/09 04:54:40;;;;;;;19.33;11.88;;;;;;;-0.64;72.42;94973.91;4967983;28;20043;-69
2023/01/09 04:57:05;;;;;;;21.65;13.18;;;;;;;-0.63;72.55;94973.03;4969418;28;20031;-69
2023/01/09 04:59:31;;;;;;;21.38;12.70;;;;;;;-0.67;72.60;94974.84;4967751;28;20060;-69
2023/01/09 05:01:58;;;;;;;32.60;20.17;;;;;;;-0.72;72.66;94971.66;4950708;28;20035;-69
2023/01/09 05:04:23;;;;;;;31.13;18.45;;;;;;;-0.81;72.90;94961.75;4963231;28;20031;-69
2023/01/09 05:06:49;;;;;;;27.23;15.63;;;;;;;-0.84;72.87;94962.69;4951247;28;20042;-69
2023/01/09 05:09:14;;;;;;;23.38;14.95;;;;;;;-0.86;72.96;94951.75;4964946;28;20038;-69
2023/01/09 05:11:40;;;;;;;22.75;13.32;;;;;;;-0.81;72.99;94957.47;4967451;28;20100;-69
2023/01/09 05:14:05;;;;;;;22.17;13.00;;;;;;;-0.75;72.77;94952.19;4968169;28;20080;-69
2023/01/09 05:16:31;;;;;;;21.98;12.18;;;;;;;-0.82;73.32;94976.25;4950286;28;20042;-69
2023/01/09 05:18:56;;;;;;;19.98;11.77;;;;;;;-0.75;73.00;94971.78;4968173;28;20106;-69
2023/01/09 05:21:25;;;;;;;20.85;12.43;;;;;;;-0.84;72.95;94972.06;4980842;28;20039;-69
2023/01/09 05:23:51;;;;;;;18.65;11.35;;;;;;;-0.74;72.02;94978.53;4969396;28;20422;-69
2023/01/09 05:26:17;;;;;;;19.80;12.15;;;;;;;-0.81;72.46;94984.72;4950302;28;20027;-69
2023/01/09 05:28:43;;;;;;;20.17;11.57;;;;;;;-0.90;72.50;94985.88;4967843;28;20030;-69
2023/01/09 05:31:08;;;;;;;20.52;12.57;;;;;;;-1.01;72.66;94965.03;4965213;28;20432;-69
2023/01/09 05:33:33;;;;;;;20.77;12.38;;;;;;;-0.91;72.48;94985.06;4970351;28;20404;-69
2023/01/09 05:35:59;;;;;;;19.48;11.85;;;;;;;-0.98;72.47;94975.13;4967130;28;20094;-69
2023/01/09 05:38:24;;;;;;;22.08;13.40;;;;;;;-0.98;72.71;94993.78;4937599;28;20114;-69
2023/01/09 05:40:50;;;;;;;25.02;13.80;;;;;;;-1.05;72.62;94983.88;4963909;28;20034;-69
2023/01/09 05:43:15;;;;;;;28.38;16.60;;;;;;;-1.11;72.79;94979.84;4968743;28;20424;-68
2023/01/09 05:45:41;;;;;;;22.27;14.50;;;;;;;-1.01;72.75;94965.03;4935294;28;20035;-68
2023/01/09 05:48:06;;;;;;;23.20;14.95;;;;;;;-0.90;72.86;94962.94;4951523;28;20046;-69
2023/01/09 05:50:31;;;;;;;19.90;12.63;;;;;;;-1.02;72.88;94981.22;4962828;28;20041;-69
2023/01/09 05:52:57;;;;;;;21.35;12.05;;;;;;;-1.10;73.22;94976.38;4951396;28;20050;-70
2023/01/09 05:55:22;;;;;;;23.00;13.52;;;;;;;-1.05;73.89;94974.50;4966909;28;20477;-69
2023/01/09 05:57:48;;;;;;;24.13;13.55;;;;;;;-1.05;74.13;94971.13;4950389;28;21664;-69
2023/01/09 06:00:14;;;;;;;21.30;12.88;;;;;;;-1.07;73.68;94968.63;4966477;28;20074;-69
2023/01/09 06:02:39;;;;;;;22.52;13.38;;;;;;;-1.00;73.60;94959.88;4946815;29;20050;-69
2023/01/09 06:05:05;;;;;;;21.88;11.48;;;;;;;-0.94;73.16;94969.03;4965659;28;20031;-69
2023/01/09 06:07:33;;;;;;;25.90;13.98;;;;;;;-0.92;73.33;94969.78;4982474;28;20521;-69
2023/01/09 06:09:59;;;;;;;24.88;12.60;;;;;;;-1.15;73.46;94945.94;4963514;28;20061;-69
2023/01/09 06:12:24;;;;;;;27.50;14.75;;;;;;;-1.03;73.89;94959.13;4965709;28;20482;-69
2023/01/09 06:14:49;;;;;;;37.25;18.58;;;;;;;-1.00;73.70;94959.88;4967721;28;20093;-69
2023/01/09 06:17:15;;;;;;;38.95;19.33;;;;;;;-0.96;73.06;94963.97;4966838;28;20100;-69
2023/01/09 06:19:40;;;;;;;27.45;16.30;;;;;;;-1.07;73.35;94945.69;4967304;28;20043;-68
2023/01/09 06:22:06;;;;;;;27.65;15.85;;;;;;;-0.98;73.44;94964.91;4965517;28;20042;-69
2023/01/09 06:24:31;;;;;;;29.90;16.88;;;;;;;-1.05;72.92;94953.28;4968816;28;20561;-68
2023/01/09 06:26:57;;;;;;;30.00;15.10;;;;;;;-0.97;72.92;94958.94;4966580;28;20480;-69
2023/01/09 06:29:22;;;;;;;29.48;16.85;;;;;;;-0.93;73.86;94963.03;4968101;28;20371;-69
2023/01/09 06:31:47;;;;;;;137.15;54.45;;;;;;;-0.96;74.82;94958.06;4963694;28;20042;-69
2023/01/09 06:34:13;;;;;;;78.03;35.35;;;;;;;-0.85;75.40;94950.03;4965725;28;20046;-69
2023/01/09 06:36:38;;;;;;;37.63;19.58;;;;;;;-0.91;75.26;94941.69;4962656;28;20103;-69
2023/01/09 06:39:04;;;;;;;30.92;17.77;;;;;;;-0.82;75.10;94944.81;4948799;28;20418;-69
2023/01/09 06:41:29;;;;;;;41.40;21.27;;;;;;;-0.82;74.79;94949.91;4969742;28;20050;-69
2023/01/09 06:43:55;;;;;;;43.25;22.48;;;;;;;-0.79;75.13;94960.00;4968734;28;20085;-69
2023/01/09 06:46:20;;;;;;;33.78;18.52;;;;;;;-0.92;74.86;94954.50;4970055;28;20038;-69
2023/01/09 06:48:45;;;;;;;31.15;17.65;;;;;;;-0.82;74.41;94947.34;4970465;28;20038;-68
2023/01/09 06:51:11;;;;;;;43.30;20.33;;;;;;;-0.79;74.28;94955.72;4969846;28;20038;-69
2023/01/09 06:53:37;;;;;;;26.45;14.25;;;;;;;-0.62;74.08;94949.16;4969711;28;20046;-69
2023/01/09 06:56:03;;;;;;;22.60;13.55;;;;;;;-0.65;73.60;94955.22;4982489;28;20034;-69
2023/01/09 06:58:29;;;;;;;23.65;14.23;;;;;;;-0.72;73.84;94948.69;4967472;28;20100;-69
2023/01/09 07:00:55;;;;;;;34.28;17.58;;;;;;;-0.71;73.78;94940.13;4936336;28;20027;-68
2023/01/09 07:03:21;;;;;;;32.90;18.45;;;;;;;-0.56;73.63;94942.09;4986157;28;20026;-69
2023/01/09 07:05:46;;;;;;;41.53;19.65;;;;;;;-0.47;73.59;94943.50;4967776;28;20494;-68
2023/01/09 07:08:13;;;;;;;39.13;20.52;;;;;;;-0.47;73.58;94935.84;4966600;28;20038;-69
2023/01/09 07:10:39;;;;;;;35.97;18.88;;;;;;;-0.43;73.98;94939.09;4953897;29;20448;-69
2023/01/09 07:13:05;;;;;;;102.78;34.38;;;;;;;-0.50;74.75;94936.78;4969808;28;20482;-69
2023/01/09 07:15:30;;;;;;;64.38;28.45;;;;;;;-0.43;75.31;94939.09;4973606;28;20042;-69
2023/01/09 07:17:56;;;;;;;58.42;25.70;;;;;;;-0.23;74.62;94936.63;4973498;28;20039;-69
2023/01/09 07:20:21;;;;;;;38.05;19.92;;;;;;;-0.33;74.74;94922.56;4971685;28;20031;-68
2023/01/09 07:22:47;;;;;;;33.67;17.15;;;;;;;-0.13;75.06;94939.66;4956593;28;20043;-68
2023/01/09 07:25:12;;;;;;;28.27;15.48;;;;;;;-0.17;75.13;94928.72;4973952;28;20027;-68
2023/01/09 07:27:37;;;;;;;22.25;13.88;;;;;;;-0.01;74.77;94940.00;4956408;28;20400;-68
2023/01/09 07:30:04;;;;;;;25.73;14.27;;;;;;;0.22;74.34;94940.78;4946463;28;20035;-69
2023/01/09 07:32:30;;;;;;;21.38;13.38;;;;;;;0.29;74.21;94954.16;4972083;28;20497;-68
2023/01/09 07:34:55;;;;;;;23.40;13.95;;;;;;;0.24;74.47;94939.00;4970117;28;20034;-68
2023/01/09 07:37:21;;;;;;;22.20;12.98;;;;;;;0.46;74.49;94946.63;4969969;28;20481;-68
2023/01/09 07:39:46;;;;;;;23.75;14.20;;;;;;;0.63;74.57;94951.88;4936974;28;20038;-69
2023/01/09 07:42:12;;;;;;;27.00;14.88;;;;;;;0.62;74.64;94944.28;4952955;28;20031;-68
2023/01/09 07:44:37;;;;;;;25.23;14.60;;;;;;;0.47;74.35;94909.13;4936087;29;20031;-69
2023/01/09 07:47:02;;;;;;;20.17;12.35;;;;;;;0.60;74.64;94929.00;4951853;29;20031;-68
2023/01/09 07:49:28;;;;;;;20.35;11.95;;;;;;;0.72;75.03;94952.38;4952361;28;20039;-69
2023/01/09 07:51:54;;;;;;;23.13;12.13;;;;;;;0.76;74.36;94941.97;4951607;29;20028;-68
2023/01/09 07:54:19;;;;;;;21.73;12.13;;;;;;;0.92;74.78;94951.53;4920433;29;20031;-69
2023/01/09 07:56:45;;;;;;;20.15;11.88;;;;;;;0.92;73.90;94947.28;4952335;29;20027;-68
2023/01/09 07:59:10;;;;;;;24.15;14.15;;;;;;;1.12;74.32;94961.75;4953490;29;20054;-69
2023/01/09 08:01:36;;;;;;;26.60;15.20;;;;;;;1.18;74.28;94968.34;4937749;29;20043;-68
2023/01/09 08:04:01;;;;;;;25.30;14.88;;;;;;;1.36;74.04;94976.91;4937724;29;20031;-68
2023/01/09 08:06:27;;;;;;;28.25;16.95;;;;;;;1.49;73.84;94966.06;4954847;28;20027;-69
2023/01/09 08:08:52;;;;;;;34.35;20.77;;;;;;;1.43;73.84;94973.22;4953662;29;20537;-68
2023/01/09 08:11:17;;;;;;;34.80;20.05;;;;;;;1.52;73.59;94959.97;4937559;29;20486;-68
2023/01/09 08:13:43;;;;;;;30.20;18.30;;;;;;;1.86;73.02;94979.75;4953528;29;20414;-69
2023/01/09 08:16:08;;;;;;;29.70;19.20;;;;;;;2.06;72.76;94978.00;4954661;28;20054;-68
2023/01/09 08:18:34;;;;;;;35.38;21.38;;;;;;;2.13;72.78;94969.13;4937363;28;20039;-69
2023/01/09 08:20:59;;;;;;;35.13;22.48;;;;;;;2.35;72.19;94974.06;4954566;28;20437;-68
2023/01/09 08:23:25;;;;;;;37.83;23.13;;;;;;;2.54;71.75;94974.84;4954340;28;20038;-69
2023/01/09 08:25:52;;;;;;;35.80;22.70;;;;;;;2.66;71.04;94970.84;4953301;29;20031;-69
2023/01/09 08:28:17;;;;;;;33.08;20.60;;;;;;;2.97;70.26;94970.13;4921364;29;20122;-69
2023/01/09 08:30:43;;;;;;;33.70;20.75;;;;;;;3.07;70.21;94955.94;4954229;28;20549;-69
2023/01/09 08:33:08;;;;;;;34.95;21.40;;;;;;;3.28;69.57;94960.84;4921303;29;20043;-69
2023/01/09 08:35:34;;;;;;;35.72;22.30;;;;;;;3.41;69.60;94963.63;4953015;29;20058;-69
2023/01/09 08:37:59;;;;;;;30.95;20.05;;;;;;;3.56;69.02;94958.50;4954384;28;20034;-69
2023/01/09 08:40:25;;;;;;;33.67;21.08;;;;;;;3.74;68.77;94959.28;4937147;29;20027;-70
2023/01/09 08:48:18;;;;;;;32.45;20.40;;;;;;;4.13;67.47;94949.47;4954166;29;20106;-69
2023/01/09 08:50:44;;;;;;;29.17;18.42;;;;;;;4.29;66.92;94949.44;4952729;29;20035;-69
2023/01/09 08:53:10;;;;;;;24.83;16.73;;;;;;;4.42;66.45;94945.25;4936721;29;20043;-68
2023/01/09 08:55:35;;;;;;;29.13;17.73;;;;;;;4.62;65.32;94942.38;4952665;29;20031;-69
2023/01/09 08:58:01;;;;;;;25.25;15.65;;;;;;;4.72;65.40;94934.16;4936362;29;20058;-68
2023/01/09 09:00:26;;;;;;;24.33;15.63;;;;;;;4.80;65.28;94940.50;4936690;28;20034;-69
2023/01/09 09:02:56;;;;;;;25.27;16.23;;;;;;;4.84;64.74;94920.56;4951640;29;20050;-69
2023/01/09 09:05:22;;;;;;;27.67;16.60;;;;;;;4.91;65.01;94916.72;4936648;29;20051;-68
2023/01/09 09:07:53;;;;;;;27.08;15.93;;;;;;;4.97;65.03;94915.53;4936426;29;20517;-69
2023/01/09 09:10:19;;;;;;;25.83;16.45;;;;;;;5.08;65.04;94924.25;4952578;29;20035;-69
2023/01/09 09:12:47;;;;;;;26.23;16.25;;;;;;;5.18;64.82;94919.38;4936255;29;20046;-69
2023/01/09 09:15:15;;;;;;;28.50;16.77;;;;;;;5.30;64.54;94916.06;4952430;28;20086;-69
2023/01/09 09:17:40;;;;;;;25.85;15.95;;;;;;;5.34;64.37;94914.13;4936644;28;20073;-69
2023/01/09 09:20:07;;;;;;;28.33;17.85;;;;;;;5.14;63.46;94877.53;4952296;29;20068;-70
2023/01/09 09:22:33;;;;;;;29.65;16.77;;;;;;;5.30;62.71;94908.34;4952128;28;20039;-68
2023/01/09 09:24:58;;;;;;;28.80;16.50;;;;;;;5.37;62.86;94894.16;4953479;28;20035;-69
2023/01/09 09:27:23;;;;;;;29.92;19.52;;;;;;;5.53;62.69;94903.53;4936012;28;20070;-69
2023/01/09 09:29:49;;;;;;;29.80;18.40;;;;;;;5.69;62.73;94909.41;4936108;28;20458;-69
2023/01/09 09:32:14;;;;;;;29.00;18.40;;;;;;;5.76;62.80;94889.22;4953170;28;20042;-69
2023/01/09 09:34:40;;;;;;;35.63;22.17;;;;;;;5.86;62.92;94882.56;4952212;29;20508;-69
2023/01/09 09:37:05;;;;;;;31.83;19.67;;;;;;;5.40;63.54;94867.38;4953194;28;20082;-69
2023/01/09 09:39:31;;;;;;;31.70;19.75;;;;;;;5.32;64.44;94864.44;4952134;28;20485;-69
2023/01/09 09:45:15;;;;;;;34.08;21.67;;;;;;;5.49;64.35;94858.25;4952108;29;20042;-69
2023/01/09 09:47:50;;;;;;;33.88;19.88;;;;;;;5.23;64.97;94847.81;4951824;28;20031;-69
2023/01/09 09:50:22;;;;;;;32.65;20.83;;;;;;;5.43;64.92;94827.72;4951789;29;20114;-69
2023/01/09 09:53:07;;;;;;;;;;;;;;;5.66;63.84;94831.44;4951983;28;20040;-69
2023/01/09 09:55:34;;;;;;;31.35;19.45;;;;;;;5.74;63.41;94818.88;4951768;29;20008;-69
2023/01/09 09:58:04;;;;;;;38.30;22.65;;;;;;;5.91;63.11;94825.56;4919736;29;20050;-69
2023/01/09 10:00:29;;;;;;;38.40;24.08;;;;;;;6.06;62.92;94810.88;4936328;29;20082;-69
2023/01/09 10:03:06;;;;;;;37.85;24.63;;;;;;;6.16;62.76;94810.19;4935744;29;20035;-69
2023/01/09 10:05:34;;;;;;;36.97;23.60;;;;;;;6.17;62.85;94796.34;4954298;28;20027;-69
2023/01/09 10:08:24;;;;;;;26.55;15.65;;;;;;;6.13;61.77;94771.69;4970589;28;20109;-69
2023/01/09 10:10:53;;;;;;;23.67;13.52;;;;;;;5.93;61.85;94766.97;4970130;28;20083;-69
2023/01/09 10:16:28;;;;;;;27.80;15.60;;;;;;;6.29;61.32;94747.44;4963008;28;20105;-69
2023/01/09 10:18:56;;;;;;;24.55;13.48;;;;;;;6.06;61.50;94739.47;4977165;28;20515;-69
2023/01/09 10:21:44;;;;;;;23.48;14.38;;;;;;;5.98;61.36;94729.66;4977123;28;20077;-69
2023/01/09 10:24:12;;;;;;;23.35;14.10;;;;;;;6.14;61.25;94738.97;4977283;28;20484;-69
2023/01/09 10:26:49;;;;;;;29.50;16.42;;;;;;;6.21;60.93;94724.72;4977104;28;20038;-69
2023/01/09 10:29:41;;;;;;;36.92;18.10;;;;;;;6.00;61.25;94716.69;4961595;28;20043;-69
2023/01/09 10:32:09;;;;;;;24.52;13.55;;;;;;;6.37;60.17;94702.13;4977291;28;20031;-69
2023/01/09 10:34:41;;;;;;;25.73;14.43;;;;;;;6.48;60.21;94709.16;4977304;28;20089;-69
2023/01/09 10:37:19;;;;;;;19.85;12.10;;;;;;;6.34;59.97;94711.84;4976985;28;20027;-69
2023/01/09 10:40:23;;;;;;;20.38;12.52;;;;;;;6.53;60.51;94709.66;4977070;28;20485;-69
2023/01/09 10:42:56;;;;;;;21.85;12.48;;;;;;;6.64;59.88;94691.69;4977241;28;20038;-69
2023/01/09 10:45:23;;;;;;;20.52;12.60;;;;;;;6.87;59.82;94700.41;4961351;28;20037;-69
2023/01/09 10:47:48;;;;;;;18.63;11.68;;;;;;;6.98;58.84;94689.31;4976876;28;20066;-69
2023/01/09 10:50:22;;;;;;;19.98;12.23;;;;;;;6.97;58.91;94671.38;4976939;28;20425;-69
2023/01/09 10:52:52;;;;;;;20.48;11.55;;;;;;;7.20;58.29;94693.78;4976721;28;20046;-69
2023/01/09 10:55:38;;;;;;;16.52;10.45;;;;;;;7.19;57.41;94670.63;4976950;28;20023;-69
2023/01/09 10:58:11;;;;;;;17.42;11.18;;;;;;;7.36;57.47;94678.84;4976835;28;20513;-69
2023/01/09 11:00:36;;;;;;;18.48;11.13;;;;;;;7.20;57.23;94683.44;4960823;28;20512;-69
2023/01/09 11:03:02;;;;;;;17.67;11.38;;;;;;;7.16;57.66;94682.03;4976702;28;20039;-69
2023/01/09 11:05:29;;;;;;;19.00;10.52;;;;;;;7.32;57.60;94671.41;4978068;28;20038;-69
2023/01/09 11:08:00;;;;;;;19.30;12.57;;;;;;;7.22;57.26;94676.44;4976739;28;20034;-69
2023/01/09 11:10:55;;;;;;;20.23;10.88;;;;;;;7.43;57.05;94663.69;4976818;28;20045;-69
2023/01/09 11:13:31;;;;;;;18.98;12.00;;;;;;;7.46;57.19;94647.16;4975683;28;20043;-69
2023/01/09 11:16:09;;;;;;;17.83;11.32;;;;;;;7.36;56.95;94642.66;4976653;28;20468;-69
2023/01/09 11:18:40;;;;;;;18.67;11.88;;;;;;;7.41;56.63;94646.66;4978105;28;20026;-69
2023/01/09 11:21:27;;;;;;;18.35;11.73;;;;;;;7.56;56.69;94646.38;4976787;28;20116;-69
2023/01/09 11:23:53;;;;;;;17.13;10.30;;;;;;;7.43;56.18;94632.69;4976087;28;20054;-69
2023/01/09 11:26:24;;;;;;;20.02;11.48;;;;;;;7.57;56.46;94629.91;4973225;28;20568;-69
2023/01/09 11:29:05;;;;;;;17.92;10.48;;;;;;;7.67;56.54;94624.91;4973557;28;20456;-69
2023/01/09 11:31:30;;;;;;;18.70;10.73;;;;;;;7.80;56.57;94627.38;4974660;28;20031;-70
2023/01/09 11:33:56;;;;;;;19.73;10.95;;;;;;;7.85;56.25;94620.09;4973642;28;20031;-69
2023/01/09 11:36:22;;;;;;;21.38;12.43;;;;;;;7.94;56.20;94618.56;4973542;28;20039;-69
2023/01/09 11:38:49;;;;;;;19.27;12.38;;;;;;;7.91;56.12;94627.41;4973429;28;20030;-69
2023/01/09 11:41:19;;;;;;;19.58;11.88;;;;;;;7.97;55.46;94611.44;4973336;28;20027;-69
2023/01/09 11:43:46;;;;;;;17.55;11.40;;;;;;;7.70;55.32;94605.75;4973366;28;20034;-69